KDSV/DSV METAR and TAF weather

Enter ICAO airport designator
Station Type Date Time Source
KDSV METAR 2020/03/28 19:54 UTC NOAA

KDSV 281954Z AUTO 14011KT 9SM SCT020 OVC026 08/06 A2987 RMK AO2 RAE46 SLP126 P0002 T00830061


Station Type Date Time Source
KDSV Decoded METAR 2020/03/28 19:54 UTC NOAA

DANSVILLE MUNICIPAL AIRPORT, NY, United States (KDSV) 42-34N 077-43W 198M
Mar 28, 2020 - 03:54 PM EDT / 2020.03.28 1954 UTC
Wind: from the SE (140 degrees) at 13 MPH (11 KT):0
Visibility: 9 mile(s):0
Sky conditions: overcast
Precipitation last hour: 0.02 inches
Temperature: 46.9 F (8.3 C)
Dew Point: 43.0 F (6.1 C)
Relative Humidity: 86%
Pressure (altimeter): 29.87 in. Hg (1011 hPa)
ob: KDSV 281954Z AUTO 14011KT 9SM SCT020 OVC026 08/06 A2987 RMK AO2 RAE46 SLP126 P0002 T00830061
cycle: 20

Station Type Date Time Source
KDSV TAF UTC NOAA

Error!

Example: see airport list